createdAt,value
2019-02-17T00:00:41.868Z,79.56
2019-02-17T00:03:17.510Z,79.83
2019-02-17T00:05:52.334Z,80.02
2019-02-17T00:08:28.799Z,80.22
2019-02-17T00:11:09.318Z,80.15
2019-02-17T00:13:44.154Z,80.19
2019-02-17T00:16:19.788Z,79.92
2019-02-17T00:18:55.424Z,80.02
2019-02-17T00:25:38.937Z,79.63
2019-02-17T00:28:20.215Z,80.13
2019-02-17T00:30:55.655Z,80.25
2019-02-17T00:33:33.869Z,80.34
2019-02-17T00:36:09.783Z,79.97
2019-02-17T00:38:44.502Z,80.10
2019-02-17T00:41:20.177Z,80.21
2019-02-17T00:44:20.117Z,80.01
2019-02-17T00:46:55.770Z,80.04
2019-02-17T00:49:30.610Z,80.25
2019-02-17T00:52:06.209Z,79.96
2019-02-17T00:54:41.907Z,80.18
2019-02-17T00:57:17.670Z,80.10
2019-02-17T01:07:59.866Z,80.35
2019-02-17T01:10:35.684Z,80.43
2019-02-17T01:13:11.518Z,80.43
2019-02-17T01:15:53.490Z,80.27
2019-02-17T01:18:29.263Z,80.70
2019-02-17T01:21:04.124Z,80.76
2019-02-17T01:23:39.129Z,80.52
2019-02-17T01:26:14.123Z,80.51
2019-02-17T01:28:49.811Z,80.88
2019-02-17T01:31:25.561Z,80.70
2019-02-17T01:34:08.069Z,80.92
2019-02-17T01:36:42.950Z,80.93
2019-02-17T01:39:18.159Z,80.84
2019-02-17T01:41:53.121Z,80.95
2019-02-17T01:44:27.924Z,80.86
2019-02-17T01:47:05.142Z,81.04
2019-02-17T01:49:40.850Z,80.60
2019-02-17T01:52:21.163Z,80.81
2019-02-17T01:59:30.554Z,80.77
2019-02-17T02:06:42.215Z,81.16
2019-02-17T02:09:17.875Z,80.86
2019-02-17T02:11:53.490Z,80.96
2019-02-17T02:14:29.131Z,80.74
2019-02-17T02:17:04.811Z,81.09
2019-02-17T02:19:40.559Z,81.34
2019-02-17T02:22:45.374Z,80.96
2019-02-17T02:25:20.123Z,81.26
2019-02-17T02:27:56.117Z,81.17
2019-02-17T02:30:31.146Z,80.93
2019-02-17T02:33:08.048Z,81.10
2019-02-17T02:35:43.310Z,80.96
2019-02-17T02:38:18.969Z,81.04
2019-02-17T02:40:54.583Z,81.18
2019-02-17T02:43:30.220Z,81.24
2019-02-17T02:46:05.864Z,81.19
2019-02-17T02:48:41.474Z,81.33
2019-02-17T02:51:52.875Z,81.44
2019-02-17T03:03:16.547Z,81.91
2019-02-17T03:06:09.954Z,82.03
2019-02-17T03:08:45.883Z,81.70
2019-02-17T03:11:23.953Z,81.82
2019-02-17T03:13:59.605Z,82.08
2019-02-17T03:16:37.766Z,81.94
2019-02-17T03:19:13.496Z,81.55
2019-02-17T03:21:48.563Z,81.84
2019-02-17T03:24:24.227Z,81.97
2019-02-17T03:26:59.955Z,81.82
2019-02-17T03:29:36.300Z,81.66
2019-02-17T03:32:12.128Z,81.79
2019-02-17T03:34:46.865Z,82.05
2019-02-17T03:42:19.756Z,81.92
2019-02-17T04:11:18.160Z,82.34
2019-02-17T04:14:11.607Z,82.33
2019-02-17T04:25:00.013Z,82.50
2019-02-17T04:27:47.831Z,82.23
2019-02-17T04:34:36.432Z,82.14
2019-02-17T04:44:54.678Z,82.48
2019-02-17T04:55:21.915Z,82.66
2019-02-17T04:58:08.808Z,82.63
2019-02-17T05:00:57.327Z,82.91
2019-02-17T05:03:45.085Z,82.48
2019-02-17T05:06:31.664Z,82.65
2019-02-17T05:09:24.913Z,82.77
2019-02-17T05:12:17.233Z,82.62
2019-02-17T05:15:06.969Z,82.64
2019-02-17T05:21:03.791Z,82.47
2019-02-17T05:23:39.367Z,82.60
2019-02-17T05:26:31.836Z,82.92
2019-02-17T05:29:07.429Z,83.12
2019-02-17T05:32:01.105Z,82.88
2019-02-17T05:34:49.029Z,83.10
2019-02-17T05:37:34.075Z,82.93
2019-02-17T05:40:09.882Z,83.05
2019-02-17T05:42:56.969Z,83.29
2019-02-17T05:45:48.485Z,83.09
2019-02-17T05:49:12.765Z,83.19
2019-02-17T05:51:48.395Z,83.28
2019-02-17T05:57:43.719Z,83.15
2019-02-17T06:00:34.119Z,83.23
2019-02-17T06:03:09.805Z,83.31
2019-02-17T06:06:07.496Z,83.08
2019-02-17T06:08:56.305Z,83.19
2019-02-17T06:11:44.396Z,82.85
2019-02-17T06:14:21.459Z,83.17
2019-02-17T06:17:10.126Z,82.97
2019-02-17T06:19:45.900Z,83.05
2019-02-17T06:25:41.261Z,83.36
2019-02-17T06:31:35.520Z,83.24
2019-02-17T06:34:25.994Z,83.29
2019-02-17T06:37:15.572Z,83.10
2019-02-17T06:40:03.899Z,83.00
2019-02-17T06:42:53.339Z,83.18
2019-02-17T06:45:41.524Z,83.14
2019-02-17T06:48:29.438Z,83.28
2019-02-17T06:51:17.263Z,83.24
2019-02-17T06:53:52.863Z,83.59
2019-02-17T06:57:10.935Z,83.37
2019-02-17T07:00:17.772Z,83.47
2019-02-17T07:03:06.823Z,83.51
2019-02-17T07:06:01.400Z,83.65
2019-02-17T07:08:49.527Z,83.50
2019-02-17T07:11:38.380Z,83.39
2019-02-17T07:14:35.862Z,83.40
2019-02-17T07:17:25.834Z,83.75
2019-02-17T07:20:14.789Z,84.13
2019-02-17T07:26:12.322Z,84.05
2019-02-17T07:32:06.320Z,84.35
2019-02-17T07:34:41.967Z,84.44
2019-02-17T07:38:14.187Z,84.41
2019-02-17T07:40:48.881Z,84.31
2019-02-17T07:43:44.817Z,84.01
2019-02-17T07:46:37.453Z,84.23
2019-02-17T07:52:34.235Z,84.33
2019-02-17T07:55:32.264Z,84.37
2019-02-17T07:58:16.196Z,84.37
2019-02-17T08:00:53.336Z,84.30
2019-02-17T08:03:31.213Z,84.45
2019-02-17T08:06:07.307Z,84.42
2019-02-17T08:08:44.618Z,84.57
2019-02-17T08:11:20.304Z,84.67
2019-02-17T08:13:58.380Z,84.55
2019-02-17T08:16:37.224Z,84.56
2019-02-17T08:19:13.561Z,84.46
2019-02-17T08:21:53.559Z,84.51
2019-02-17T08:24:28.912Z,84.36
2019-02-17T08:27:04.750Z,84.32
2019-02-17T08:29:46.766Z,84.05
2019-02-17T08:32:21.995Z,83.73
2019-02-17T08:34:57.121Z,83.44
2019-02-17T08:37:32.422Z,83.10
2019-02-17T08:40:08.433Z,83.07
2019-02-17T08:42:44.574Z,82.58
2019-02-17T08:45:19.393Z,82.34
2019-02-17T08:47:55.470Z,81.57
2019-02-17T08:50:33.847Z,81.33
2019-02-17T08:53:09.024Z,80.83
2019-02-17T08:55:45.613Z,80.66
2019-02-17T09:00:43.306Z,79.63
2019-02-17T09:03:19.220Z,79.31
2019-02-17T09:05:57.170Z,79.30
2019-02-17T09:08:31.963Z,78.76
2019-02-17T09:11:07.026Z,78.53
2019-02-17T09:13:41.927Z,78.70
2019-02-17T09:16:16.784Z,78.23
2019-02-17T09:18:52.422Z,78.25
2019-02-17T09:21:29.662Z,77.94
2019-02-17T09:24:09.589Z,77.82
2019-02-17T09:26:44.391Z,77.00
2019-02-17T09:29:19.193Z,76.59
2019-02-17T09:31:54.253Z,76.83
2019-02-17T09:34:29.147Z,76.22
2019-02-17T09:37:04.057Z,75.32
2019-02-17T09:39:38.869Z,74.46
2019-02-17T09:42:13.639Z,73.82
2019-02-17T09:44:48.436Z,73.21
2019-02-17T09:47:23.391Z,71.75
2019-02-17T09:49:58.356Z,72.31
2019-02-17T09:52:33.303Z,71.48
2019-02-17T09:55:09.511Z,72.02
2019-02-17T09:57:44.443Z,71.79
2019-02-17T10:00:20.145Z,71.48
2019-02-17T10:02:54.937Z,70.92
2019-02-17T10:05:29.780Z,69.96
2019-02-17T10:08:04.592Z,69.66
2019-02-17T10:10:39.510Z,69.36
2019-02-17T10:13:14.363Z,67.90
2019-02-17T10:15:49.280Z,67.22
2019-02-17T10:18:24.031Z,66.06
2019-02-17T10:20:58.865Z,66.15
2019-02-17T10:23:33.709Z,65.37
2019-02-17T10:26:08.511Z,65.66
2019-02-17T10:28:44.115Z,64.46
2019-02-17T10:31:19.048Z,64.08
2019-02-17T10:33:53.946Z,64.08
2019-02-17T10:36:29.056Z,63.93
2019-02-17T10:39:05.254Z,63.50
2019-02-17T10:41:40.046Z,63.80
2019-02-17T10:44:14.886Z,63.18
2019-02-17T10:46:49.854Z,63.61
2019-02-17T10:49:24.650Z,63.85
2019-02-17T10:51:59.785Z,62.79
2019-02-17T10:54:35.083Z,63.00
2019-02-17T10:57:09.940Z,62.63
2019-02-17T10:59:44.616Z,60.95
2019-02-17T11:02:19.415Z,61.51
2019-02-17T11:04:54.303Z,59.93
2019-02-17T11:07:29.196Z,59.71
2019-02-17T11:10:04.102Z,59.11
2019-02-17T11:12:38.928Z,59.13
2019-02-17T11:15:17.543Z,58.54
2019-02-17T11:17:52.360Z,59.17
2019-02-17T11:20:28.247Z,58.28
2019-02-17T11:23:03.090Z,58.84
2019-02-17T11:25:41.195Z,58.54
2019-02-17T11:28:16.026Z,58.43
2019-02-17T11:30:50.858Z,58.14
2019-02-17T11:33:25.716Z,57.92
2019-02-17T11:36:00.547Z,57.08
2019-02-17T11:38:35.845Z,55.12
2019-02-17T11:41:12.573Z,54.76
2019-02-17T11:43:47.166Z,56.82
2019-02-17T11:46:21.941Z,57.24
2019-02-17T11:48:57.219Z,56.37
2019-02-17T11:51:32.959Z,56.40
2019-02-17T11:54:07.893Z,55.88
2019-02-17T11:56:43.649Z,55.79
2019-02-17T11:59:18.653Z,54.85
2019-02-17T12:01:53.428Z,54.29
2019-02-17T12:04:28.751Z,53.38
2019-02-17T12:07:03.597Z,54.60
2019-02-17T12:09:38.423Z,54.00
2019-02-17T12:12:13.800Z,53.65
2019-02-17T12:14:48.705Z,52.42
2019-02-17T12:17:23.507Z,51.28
2019-02-17T12:20:07.410Z,49.94
2019-02-17T12:22:47.216Z,48.54
2019-02-17T12:25:27.272Z,46.46
2019-02-17T12:28:09.490Z,44.60
2019-02-17T12:30:45.490Z,45.23
2019-02-17T12:33:21.764Z,44.20
2019-02-17T12:35:57.051Z,44.67
2019-02-17T12:38:31.962Z,43.85
2019-02-17T12:41:06.751Z,43.10
2019-02-17T12:43:41.741Z,43.54
2019-02-17T12:46:17.508Z,41.96
2019-02-17T12:48:52.564Z,42.00
2019-02-17T12:51:27.411Z,41.41
2019-02-17T12:54:02.588Z,41.29
2019-02-17T12:56:37.418Z,41.23
2019-02-17T12:59:12.237Z,42.08
2019-02-17T13:01:47.412Z,41.52
2019-02-17T13:04:22.308Z,42.65
2019-02-17T13:06:57.133Z,41.49
2019-02-17T13:09:32.778Z,40.46
2019-02-17T13:12:07.637Z,40.50
2019-02-17T13:14:42.670Z,41.05
2019-02-17T13:17:18.495Z,39.89
2019-02-17T13:19:53.281Z,39.03
2019-02-17T13:22:28.209Z,38.85
2019-02-17T13:25:03.131Z,39.22
2019-02-17T13:27:37.944Z,39.80
2019-02-17T13:30:17.320Z,40.03
2019-02-17T13:32:52.225Z,38.82
2019-02-17T13:35:26.969Z,38.61
2019-02-17T13:38:01.967Z,39.05
2019-02-17T13:40:36.883Z,40.08
2019-02-17T13:43:11.662Z,39.48
2019-02-17T13:45:46.467Z,40.65
2019-02-17T13:48:21.321Z,41.55
2019-02-17T13:50:56.096Z,42.00
2019-02-17T13:53:31.007Z,40.89
2019-02-17T13:56:06.080Z,40.84
2019-02-17T13:58:40.934Z,41.19
2019-02-17T14:01:15.975Z,40.67
2019-02-17T14:03:50.848Z,40.15
2019-02-17T14:06:25.636Z,40.23
2019-02-17T14:09:00.751Z,40.28
2019-02-17T14:11:35.794Z,38.92
2019-02-17T14:14:10.609Z,39.30
2019-02-17T14:16:45.422Z,40.62
2019-02-17T14:19:20.215Z,39.64
2019-02-17T14:21:55.104Z,39.73
2019-02-17T14:24:29.886Z,38.69
2019-02-17T14:27:04.530Z,39.09
2019-02-17T14:29:39.348Z,38.74
2019-02-17T14:32:14.129Z,39.24
2019-02-17T14:34:48.960Z,41.82
2019-02-17T14:37:24.249Z,41.80
2019-02-17T14:39:59.152Z,41.85
2019-02-17T14:42:34.641Z,41.89
2019-02-17T14:45:11.451Z,42.02
2019-02-17T14:47:46.406Z,41.77
2019-02-17T14:50:21.707Z,41.84
2019-02-17T14:52:56.481Z,42.33
2019-02-17T14:55:31.272Z,42.17
2019-02-17T14:58:06.040Z,41.50
2019-02-17T15:00:40.834Z,40.63
2019-02-17T15:03:15.703Z,40.48
2019-02-17T15:05:50.482Z,42.22
2019-02-17T15:08:25.319Z,41.79
2019-02-17T15:11:00.247Z,42.88
2019-02-17T15:13:35.075Z,42.82
2019-02-17T15:16:09.765Z,43.50
2019-02-17T15:18:44.592Z,43.95
2019-02-17T15:21:19.359Z,44.79
2019-02-17T15:23:54.126Z,45.41
2019-02-17T15:26:28.960Z,46.92
2019-02-17T15:29:03.736Z,48.19
2019-02-17T15:31:39.409Z,49.12
2019-02-17T15:34:18.719Z,49.96
2019-02-17T15:36:50.857Z,50.23
2019-02-17T15:39:25.782Z,50.34
2019-02-17T15:42:00.688Z,50.79
2019-02-17T15:44:35.461Z,51.14
2019-02-17T15:47:10.295Z,51.49
2019-02-17T15:49:45.676Z,52.20
2019-02-17T15:52:20.668Z,52.67
2019-02-17T15:54:55.834Z,53.12
2019-02-17T15:57:30.809Z,54.21
2019-02-17T16:00:08.010Z,54.63
2019-02-17T16:02:45.354Z,55.04
2019-02-17T16:05:20.340Z,56.91
2019-02-17T16:07:55.241Z,58.20
2019-02-17T16:10:30.253Z,59.31
2019-02-17T16:13:05.205Z,59.43
2019-02-17T16:15:40.314Z,60.00
2019-02-17T16:18:15.720Z,61.09
2019-02-17T16:20:51.478Z,62.59
2019-02-17T16:23:26.629Z,62.82
2019-02-17T16:26:03.880Z,62.72
2019-02-17T16:28:38.731Z,63.68
2019-02-17T16:31:13.685Z,63.86
2019-02-17T16:33:49.683Z,64.22
2019-02-17T16:36:24.562Z,64.91
2019-02-17T16:38:59.617Z,65.33
2019-02-17T16:41:34.790Z,66.04
2019-02-17T16:44:09.770Z,66.93
2019-02-17T16:46:44.665Z,67.16
2019-02-17T16:49:19.777Z,68.17
2019-02-17T16:51:54.704Z,69.16
2019-02-17T16:54:29.643Z,69.69
2019-02-17T16:57:05.788Z,69.91
2019-02-17T16:59:40.884Z,70.24
2019-02-17T17:02:15.781Z,70.57
2019-02-17T17:04:50.907Z,70.89
2019-02-17T17:07:25.750Z,71.01
2019-02-17T17:10:00.860Z,71.09
2019-02-17T17:12:36.780Z,71.23
2019-02-17T17:15:12.892Z,71.68
2019-02-17T17:17:47.677Z,71.65
2019-02-17T17:20:24.016Z,71.82
2019-02-17T17:22:58.763Z,71.91
2019-02-17T17:25:33.631Z,72.09
2019-02-17T17:28:08.386Z,72.30
2019-02-17T17:30:43.378Z,72.39
2019-02-17T17:33:18.153Z,72.60
2019-02-17T17:35:52.960Z,72.72
2019-02-17T17:38:27.756Z,72.93
2019-02-17T17:41:06.070Z,73.09
2019-02-17T17:43:40.820Z,73.30
2019-02-17T17:46:15.613Z,73.42
2019-02-17T17:48:50.574Z,73.53
2019-02-17T17:51:25.431Z,73.49
2019-02-17T17:54:00.153Z,73.88
2019-02-17T17:56:34.962Z,73.98
2019-02-17T17:59:09.721Z,74.05
2019-02-17T18:01:44.489Z,74.12
2019-02-17T18:04:19.525Z,74.25
2019-02-17T18:06:54.367Z,74.79
2019-02-17T18:09:29.182Z,74.69
2019-02-17T18:12:03.978Z,74.53
2019-02-17T18:14:38.838Z,74.61
2019-02-17T18:17:13.631Z,74.63
2019-02-17T18:19:48.496Z,74.62
2019-02-17T18:22:23.284Z,74.99
2019-02-17T18:24:58.037Z,74.99
2019-02-17T18:27:32.918Z,75.16
2019-02-17T18:30:09.191Z,75.26
2019-02-17T18:32:44.852Z,75.42
2019-02-17T18:35:21.645Z,75.54
2019-02-17T18:37:56.413Z,75.62
2019-02-17T18:40:31.379Z,76.00
2019-02-17T18:43:10.642Z,75.82
2019-02-17T18:45:45.494Z,75.90
2019-02-17T18:48:20.370Z,75.80
2019-02-17T18:50:59.117Z,75.90
2019-02-17T18:53:31.887Z,76.16
2019-02-17T18:56:06.765Z,76.38
2019-02-17T18:58:41.953Z,76.28
2019-02-17T19:01:16.795Z,76.19
2019-02-17T19:03:51.830Z,76.47
2019-02-17T19:06:26.627Z,76.78
2019-02-17T19:09:03.780Z,76.48
2019-02-17T19:11:39.401Z,76.45
2019-02-17T19:14:14.212Z,76.64
2019-02-17T19:16:48.978Z,76.63
2019-02-17T19:19:23.812Z,76.54
2019-02-17T19:21:58.647Z,76.69
2019-02-17T19:24:34.382Z,76.99
2019-02-17T19:27:09.141Z,76.66
2019-02-17T19:29:44.115Z,76.84
2019-02-17T19:32:18.983Z,76.81
2019-02-17T19:34:53.793Z,77.19
2019-02-17T19:37:28.567Z,77.21
2019-02-17T19:40:03.430Z,77.04
2019-02-17T19:42:38.444Z,77.30
2019-02-17T19:45:13.831Z,77.45
2019-02-17T19:47:48.668Z,77.27
2019-02-17T19:50:23.510Z,77.24
2019-02-17T19:52:58.398Z,77.42
2019-02-17T19:55:34.070Z,77.25
2019-02-17T19:58:08.827Z,77.50
2019-02-17T20:00:43.695Z,77.54
2019-02-17T20:03:37.315Z,77.64
2019-02-17T20:06:13.723Z,78.08
2019-02-17T20:08:48.544Z,78.24
2019-02-17T20:11:23.468Z,78.26
2019-02-17T20:13:58.336Z,78.27
2019-02-17T20:16:33.404Z,78.36
2019-02-17T20:19:09.099Z,78.58
2019-02-17T20:21:43.930Z,78.77
2019-02-17T20:24:18.852Z,78.83
2019-02-17T20:26:53.630Z,78.57
2019-02-17T20:29:28.463Z,78.41
2019-02-17T20:32:04.197Z,78.48
2019-02-17T20:34:38.989Z,78.44
2019-02-17T20:37:14.034Z,78.77
2019-02-17T20:39:49.063Z,78.70
2019-02-17T20:42:23.998Z,78.46
2019-02-17T20:44:58.761Z,78.63
2019-02-17T20:47:33.578Z,78.83
2019-02-17T20:50:08.582Z,78.80
2019-02-17T20:52:43.599Z,78.48
2019-02-17T20:55:18.544Z,78.33
2019-02-17T20:57:53.447Z,78.41
2019-02-17T21:00:29.415Z,78.46
2019-02-17T21:03:04.229Z,78.72
2019-02-17T21:05:39.048Z,78.49
2019-02-17T21:08:14.058Z,78.64
2019-02-17T21:10:48.871Z,78.41
2019-02-17T21:13:23.877Z,78.81
2019-02-17T21:16:00.667Z,78.52
2019-02-17T21:18:35.470Z,78.81
2019-02-17T21:21:10.388Z,78.96
2019-02-17T21:23:45.119Z,78.82
2019-02-17T21:26:26.223Z,79.27
2019-02-17T21:28:58.301Z,78.99
2019-02-17T21:31:33.197Z,79.36
2019-02-17T21:34:07.985Z,79.26
2019-02-17T21:36:42.752Z,79.11
2019-02-17T21:39:17.635Z,78.68
2019-02-17T21:41:52.497Z,78.82
2019-02-17T21:44:27.357Z,78.90
2019-02-17T21:47:03.033Z,78.60
2019-02-17T21:49:37.899Z,78.63
2019-02-17T21:52:12.651Z,78.96
2019-02-17T21:54:47.438Z,79.19
2019-02-17T21:57:22.219Z,79.08
2019-02-17T21:59:57.042Z,79.00
2019-02-17T22:02:31.905Z,79.03
2019-02-17T22:05:06.842Z,79.12
2019-02-17T22:07:42.527Z,79.08
2019-02-17T22:10:18.266Z,79.21
2019-02-17T22:12:53.701Z,79.42
2019-02-17T22:15:29.393Z,79.32
2019-02-17T22:18:04.175Z,79.50
2019-02-17T22:20:40.185Z,79.21
2019-02-17T22:23:15.113Z,79.64
2019-02-17T22:25:50.743Z,79.80
2019-02-17T22:28:26.383Z,79.84
2019-02-17T22:31:06.227Z,79.81
2019-02-17T22:33:41.103Z,79.98
2019-02-17T22:36:16.763Z,79.81
2019-02-17T22:38:52.394Z,79.47
2019-02-17T22:41:27.213Z,79.60
2019-02-17T22:44:01.993Z,79.55
2019-02-17T22:46:37.673Z,79.79
2019-02-17T22:49:12.497Z,79.40
2019-02-17T22:51:48.491Z,79.42
2019-02-17T22:54:46.383Z,79.62
2019-02-17T22:57:22.016Z,79.66
2019-02-17T23:00:58.601Z,79.66
2019-02-17T23:03:55.018Z,80.00
2019-02-17T23:06:29.797Z,80.00
2019-02-17T23:13:03.481Z,80.09
2019-02-17T23:15:39.083Z,80.20
2019-02-17T23:22:28.757Z,80.43
2019-02-17T23:25:03.742Z,80.49
2019-02-17T23:27:38.550Z,80.47
2019-02-17T23:37:23.711Z,80.54
2019-02-17T23:40:38.926Z,80.71
2019-02-17T23:47:38.138Z,80.78
2019-02-17T23:50:14.041Z,80.96
2019-02-17T23:57:26.756Z,80.87
